sensor_id;sensor_type;location;lat;lon;timestamp;P1;durP1;ratioP1;P2;durP2;ratioP2
43327;SDS011;28923;45.412;10.852;2023-12-20T05:01:23;9.23;;;6.90;;
43327;SDS011;28923;45.412;10.852;2023-12-20T05:03:48;8.00;;;6.32;;
43327;SDS011;28923;45.412;10.852;2023-12-20T05:06:13;9.73;;;6.63;;
43327;SDS011;28923;45.412;10.852;2023-12-20T05:08:40;7.57;;;5.68;;
43327;SDS011;28923;45.412;10.852;2023-12-20T05:11:05;8.18;;;5.88;;
43327;SDS011;28923;45.412;10.852;2023-12-20T05:13:31;8.73;;;6.40;;
43327;SDS011;28923;45.412;10.852;2023-12-20T05:15:56;8.25;;;5.43;;
43327;SDS011;28923;45.412;10.852;2023-12-20T05:18:22;8.40;;;6.20;;
43327;SDS011;28923;45.412;10.852;2023-12-20T05:20:48;7.25;;;5.22;;
43327;SDS011;28923;45.412;10.852;2023-12-20T05:23:15;6.35;;;5.15;;
43327;SDS011;28923;45.412;10.852;2023-12-20T05:25:40;6.75;;;5.10;;
43327;SDS011;28923;45.412;10.852;2023-12-20T05:28:06;6.82;;;5.10;;
43327;SDS011;28923;45.412;10.852;2023-12-20T05:30:31;6.95;;;5.43;;
43327;SDS011;28923;45.412;10.852;2023-12-20T05:32:56;6.10;;;4.90;;
43327;SDS011;28923;45.412;10.852;2023-12-20T05:35:22;6.47;;;4.70;;
43327;SDS011;28923;45.412;10.852;2023-12-20T05:37:48;6.07;;;4.80;;
43327;SDS011;28923;45.412;10.852;2023-12-20T05:40:14;5.85;;;4.60;;
43327;SDS011;28923;45.412;10.852;2023-12-20T05:42:39;5.45;;;4.40;;
43327;SDS011;28923;45.412;10.852;2023-12-20T05:45:05;5.82;;;4.38;;
43327;SDS011;28923;45.412;10.852;2023-12-20T05:47:31;4.70;;;4.15;;
43327;SDS011;28923;45.412;10.852;2023-12-20T05:49:56;5.43;;;4.10;;
43327;SDS011;28923;45.412;10.852;2023-12-20T05:52:22;5.70;;;4.10;;
43327;SDS011;28923;45.412;10.852;2023-12-20T05:54:47;4.57;;;4.00;;
43327;SDS011;28923;45.412;10.852;2023-12-20T05:57:12;6.47;;;4.38;;
43327;SDS011;28923;45.412;10.852;2023-12-20T05:59:38;4.95;;;3.83;;
43327;SDS011;28923;45.412;10.852;2023-12-20T06:02:03;5.32;;;4.22;;
43327;SDS011;28923;45.412;10.852;2023-12-20T06:04:30;5.18;;;4.38;;
43327;SDS011;28923;45.412;10.852;2023-12-20T06:06:55;5.38;;;4.18;;
43327;SDS011;28923;45.412;10.852;2023-12-20T06:09:20;5.15;;;3.75;;
43327;SDS011;28923;45.412;10.852;2023-12-20T06:11:46;4.30;;;3.70;;
43327;SDS011;28923;45.412;10.852;2023-12-20T06:14:12;3.83;;;3.42;;
43327;SDS011;28923;45.412;10.852;2023-12-20T06:16:37;5.25;;;3.58;;
43327;SDS011;28923;45.412;10.852;2023-12-20T06:19:03;3.97;;;3.58;;
43327;SDS011;28923;45.412;10.852;2023-12-20T06:21:28;6.22;;;3.58;;
43327;SDS011;28923;45.412;10.852;2023-12-20T06:23:54;11.15;;;4.07;;
43327;SDS011;28923;45.412;10.852;2023-12-20T06:26:20;4.70;;;3.30;;
43327;SDS011;28923;45.412;10.852;2023-12-20T06:28:45;7.55;;;4.00;;
43327;SDS011;28923;45.412;10.852;2023-12-20T06:31:11;5.20;;;3.72;;
43327;SDS011;28923;45.412;10.852;2023-12-20T06:33:36;6.57;;;3.58;;
43327;SDS011;28923;45.412;10.852;2023-12-20T06:36:01;5.32;;;3.65;;
43327;SDS011;28923;45.412;10.852;2023-12-20T06:38:27;5.05;;;3.42;;
43327;SDS011;28923;45.412;10.852;2023-12-20T06:40:52;6.10;;;3.65;;
43327;SDS011;28923;45.412;10.852;2023-12-20T06:43:18;6.10;;;3.22;;
43327;SDS011;28923;45.412;10.852;2023-12-20T06:45:44;6.95;;;3.50;;
43327;SDS011;28923;45.412;10.852;2023-12-20T06:48:09;5.32;;;3.40;;
43327;SDS011;28923;45.412;10.852;2023-12-20T06:50:37;4.45;;;3.10;;
43327;SDS011;28923;45.412;10.852;2023-12-20T06:53:05;6.32;;;3.28;;
43327;SDS011;28923;45.412;10.852;2023-12-20T06:55:33;5.78;;;3.33;;
43327;SDS011;28923;45.412;10.852;2023-12-20T06:57:58;8.90;;;3.65;;
43327;SDS011;28923;45.412;10.852;2023-12-20T07:00:23;4.95;;;3.28;;
43327;SDS011;28923;45.412;10.852;2023-12-20T07:02:49;4.85;;;3.40;;
43327;SDS011;28923;45.412;10.852;2023-12-20T07:05:18;5.03;;;3.60;;
43327;SDS011;28923;45.412;10.852;2023-12-20T07:07:45;7.82;;;3.33;;
43327;SDS011;28923;45.412;10.852;2023-12-20T07:10:11;5.28;;;3.42;;
43327;SDS011;28923;45.412;10.852;2023-12-20T07:12:36;7.55;;;3.75;;
43327;SDS011;28923;45.412;10.852;2023-12-20T07:15:01;7.07;;;3.35;;
43327;SDS011;28923;45.412;10.852;2023-12-20T07:17:27;7.68;;;3.60;;
43327;SDS011;28923;45.412;10.852;2023-12-20T07:19:53;5.20;;;3.33;;
43327;SDS011;28923;45.412;10.852;2023-12-20T07:22:19;5.20;;;3.30;;
43327;SDS011;28923;45.412;10.852;2023-12-20T07:24:44;7.75;;;3.58;;
43327;SDS011;28923;45.412;10.852;2023-12-20T07:27:11;4.70;;;3.35;;
43327;SDS011;28923;45.412;10.852;2023-12-20T07:29:36;5.90;;;3.42;;
43327;SDS011;28923;45.412;10.852;2023-12-20T07:32:01;7.93;;;3.70;;
43327;SDS011;28923;45.412;10.852;2023-12-20T07:34:27;7.15;;;4.00;;
43327;SDS011;28923;45.412;10.852;2023-12-20T07:36:52;6.85;;;3.33;;
43327;SDS011;28923;45.412;10.852;2023-12-20T07:39:18;11.85;;;4.03;;
43327;SDS011;28923;45.412;10.852;2023-12-20T07:41:44;7.30;;;3.70;;
43327;SDS011;28923;45.412;10.852;2023-12-20T07:44:09;9.10;;;3.65;;
43327;SDS011;28923;45.412;10.852;2023-12-20T07:46:35;8.00;;;3.95;;
43327;SDS011;28923;45.412;10.852;2023-12-20T07:49:00;12.68;;;3.60;;
43327;SDS011;28923;45.412;10.852;2023-12-20T07:51:25;9.93;;;3.40;;
43327;SDS011;28923;45.412;10.852;2023-12-20T07:53:51;6.05;;;3.55;;
43327;SDS011;28923;45.412;10.852;2023-12-20T07:56:17;7.22;;;3.63;;
43327;SDS011;28923;45.412;10.852;2023-12-20T07:58:43;8.15;;;3.58;;
43327;SDS011;28923;45.412;10.852;2023-12-20T08:01:09;4.22;;;2.95;;
43327;SDS011;28923;45.412;10.852;2023-12-20T08:03:34;6.53;;;3.50;;
43327;SDS011;28923;45.412;10.852;2023-12-20T08:06:00;5.82;;;3.50;;
43327;SDS011;28923;45.412;10.852;2023-12-20T08:08:25;10.02;;;3.63;;
43327;SDS011;28923;45.412;10.852;2023-12-20T08:10:51;5.80;;;3.35;;
43327;SDS011;28923;45.412;10.852;2023-12-20T08:13:17;7.78;;;3.47;;
43327;SDS011;28923;45.412;10.852;2023-12-20T08:15:43;9.32;;;3.20;;
43327;SDS011;28923;45.412;10.852;2023-12-20T08:18:09;8.52;;;3.55;;
43327;SDS011;28923;45.412;10.852;2023-12-20T08:20:34;7.35;;;3.00;;
43327;SDS011;28923;45.412;10.852;2023-12-20T08:23:00;5.70;;;3.10;;
43327;SDS011;28923;45.412;10.852;2023-12-20T08:25:25;6.28;;;3.53;;
43327;SDS011;28923;45.412;10.852;2023-12-20T08:27:52;4.57;;;3.20;;
43327;SDS011;28923;45.412;10.852;2023-12-20T08:30:18;4.15;;;3.22;;
43327;SDS011;28923;45.412;10.852;2023-12-20T08:32:45;6.75;;;3.42;;
43327;SDS011;28923;45.412;10.852;2023-12-20T08:35:11;5.97;;;3.03;;
43327;SDS011;28923;45.412;10.852;2023-12-20T08:37:36;5.15;;;3.15;;
43327;SDS011;28923;45.412;10.852;2023-12-20T08:40:02;4.75;;;3.30;;
43327;SDS011;28923;45.412;10.852;2023-12-20T08:42:27;4.75;;;2.85;;
43327;SDS011;28923;45.412;10.852;2023-12-20T08:44:56;4.68;;;3.22;;
43327;SDS011;28923;45.412;10.852;2023-12-20T08:47:22;7.63;;;3.40;;
43327;SDS011;28923;45.412;10.852;2023-12-20T08:49:48;4.93;;;2.92;;
43327;SDS011;28923;45.412;10.852;2023-12-20T08:52:13;5.22;;;3.05;;
43327;SDS011;28923;45.412;10.852;2023-12-20T08:54:38;5.35;;;3.05;;
43327;SDS011;28923;45.412;10.852;2023-12-20T08:57:04;5.55;;;3.17;;
43327;SDS011;28923;45.412;10.852;2023-12-20T08:59:32;3.55;;;3.00;;
43327;SDS011;28923;45.412;10.852;2023-12-20T09:01:57;4.00;;;3.20;;
43327;SDS011;28923;45.412;10.852;2023-12-20T09:04:23;4.28;;;2.97;;
43327;SDS011;28923;45.412;10.852;2023-12-20T09:06:48;7.85;;;3.30;;
43327;SDS011;28923;45.412;10.852;2023-12-20T09:09:13;7.78;;;3.17;;
43327;SDS011;28923;45.412;10.852;2023-12-20T09:11:39;7.97;;;3.53;;
43327;SDS011;28923;45.412;10.852;2023-12-20T09:14:05;3.72;;;3.10;;
43327;SDS011;28923;45.412;10.852;2023-12-20T09:16:31;6.72;;;3.45;;
43327;SDS011;28923;45.412;10.852;2023-12-20T09:18:57;3.75;;;2.95;;
43327;SDS011;28923;45.412;10.852;2023-12-20T09:21:22;5.05;;;3.03;;
43327;SDS011;28923;45.412;10.852;2023-12-20T09:23:47;4.57;;;3.00;;
43327;SDS011;28923;45.412;10.852;2023-12-20T09:26:13;6.97;;;3.90;;
43327;SDS011;28923;45.412;10.852;2023-12-20T09:28:38;5.05;;;3.22;;
43327;SDS011;28923;45.412;10.852;2023-12-20T09:31:05;3.92;;;3.10;;
43327;SDS011;28923;45.412;10.852;2023-12-20T09:33:30;6.32;;;3.05;;
43327;SDS011;28923;45.412;10.852;2023-12-20T09:35:56;3.85;;;2.75;;
43327;SDS011;28923;45.412;10.852;2023-12-20T09:38:22;5.43;;;3.15;;
43327;SDS011;28923;45.412;10.852;2023-12-20T09:40:47;4.82;;;3.05;;
43327;SDS011;28923;45.412;10.852;2023-12-20T09:43:17;4.97;;;3.20;;
43327;SDS011;28923;45.412;10.852;2023-12-20T09:45:45;5.18;;;3.17;;
43327;SDS011;28923;45.412;10.852;2023-12-20T09:48:11;3.47;;;3.00;;
43327;SDS011;28923;45.412;10.852;2023-12-20T09:50:37;4.10;;;2.92;;
43327;SDS011;28923;45.412;10.852;2023-12-20T09:53:03;4.28;;;3.22;;
43327;SDS011;28923;45.412;10.852;2023-12-20T09:55:30;4.97;;;3.53;;
43327;SDS011;28923;45.412;10.852;2023-12-20T09:57:56;5.18;;;3.20;;
43327;SDS011;28923;45.412;10.852;2023-12-20T10:00:21;5.13;;;3.72;;
43327;SDS011;28923;45.412;10.852;2023-12-20T10:02:50;4.85;;;3.58;;
43327;SDS011;28923;45.412;10.852;2023-12-20T10:05:19;4.50;;;3.30;;
43327;SDS011;28923;45.412;10.852;2023-12-20T10:07:48;4.60;;;3.72;;
43327;SDS011;28923;45.412;10.852;2023-12-20T10:10:13;4.85;;;3.45;;
43327;SDS011;28923;45.412;10.852;2023-12-20T10:12:38;5.00;;;3.35;;
43327;SDS011;28923;45.412;10.852;2023-12-20T10:15:05;4.25;;;3.67;;
43327;SDS011;28923;45.412;10.852;2023-12-20T10:17:30;4.57;;;3.50;;
43327;SDS011;28923;45.412;10.852;2023-12-20T10:19:57;5.53;;;3.90;;
43327;SDS011;28923;45.412;10.852;2023-12-20T10:22:23;3.78;;;3.38;;
43327;SDS011;28923;45.412;10.852;2023-12-20T10:24:48;5.35;;;3.88;;
43327;SDS011;28923;45.412;10.852;2023-12-20T10:27:14;4.93;;;4.07;;
43327;SDS011;28923;45.412;10.852;2023-12-20T10:29:39;4.55;;;3.55;;
43327;SDS011;28923;45.412;10.852;2023-12-20T10:32:24;6.50;;;4.30;;
43327;SDS011;28923;45.412;10.852;2023-12-20T10:34:50;4.78;;;3.80;;
43327;SDS011;28923;45.412;10.852;2023-12-20T10:37:16;5.95;;;4.00;;
43327;SDS011;28923;45.412;10.852;2023-12-20T10:39:42;7.05;;;4.40;;
43327;SDS011;28923;45.412;10.852;2023-12-20T10:42:09;4.80;;;3.60;;
43327;SDS011;28923;45.412;10.852;2023-12-20T10:44:35;4.53;;;4.00;;
43327;SDS011;28923;45.412;10.852;2023-12-20T10:47:01;5.35;;;4.47;;
43327;SDS011;28923;45.412;10.852;2023-12-20T10:49:27;5.43;;;3.90;;
43327;SDS011;28923;45.412;10.852;2023-12-20T10:51:54;6.43;;;4.80;;
43327;SDS011;28923;45.412;10.852;2023-12-20T10:54:19;5.70;;;4.22;;
43327;SDS011;28923;45.412;10.852;2023-12-20T10:56:45;5.20;;;4.18;;
43327;SDS011;28923;45.412;10.852;2023-12-20T10:59:12;5.88;;;4.43;;
43327;SDS011;28923;45.412;10.852;2023-12-20T11:01:39;5.57;;;4.43;;
43327;SDS011;28923;45.412;10.852;2023-12-20T11:04:06;6.70;;;4.25;;
43327;SDS011;28923;45.412;10.852;2023-12-20T11:09:03;5.93;;;3.78;;
43327;SDS011;28923;45.412;10.852;2023-12-20T11:12:21;6.10;;;4.43;;
43327;SDS011;28923;45.412;10.852;2023-12-20T11:14:25;4.47;;;3.75;;
43327;SDS011;28923;45.412;10.852;2023-12-20T11:17:05;5.95;;;4.50;;
43327;SDS011;28923;45.412;10.852;2023-12-20T11:19:31;6.18;;;4.20;;
43327;SDS011;28923;45.412;10.852;2023-12-20T11:21:57;6.00;;;4.18;;
43327;SDS011;28923;45.412;10.852;2023-12-20T11:24:22;5.72;;;4.50;;
43327;SDS011;28923;45.412;10.852;2023-12-20T11:26:49;4.78;;;4.13;;
43327;SDS011;28923;45.412;10.852;2023-12-20T11:31:57;5.05;;;4.35;;
43327;SDS011;28923;45.412;10.852;2023-12-20T11:34:22;5.18;;;4.10;;
43327;SDS011;28923;45.412;10.852;2023-12-20T11:36:56;5.88;;;4.35;;
43327;SDS011;28923;45.412;10.852;2023-12-20T11:39:22;5.82;;;4.30;;
43327;SDS011;28923;45.412;10.852;2023-12-20T11:41:49;5.43;;;4.20;;
43327;SDS011;28923;45.412;10.852;2023-12-20T11:44:14;5.57;;;4.22;;
43327;SDS011;28923;45.412;10.852;2023-12-20T11:46:42;7.13;;;4.60;;
43327;SDS011;28923;45.412;10.852;2023-12-20T11:49:09;5.38;;;4.22;;
43327;SDS011;28923;45.412;10.852;2023-12-20T11:51:34;4.38;;;3.65;;
43327;SDS011;28923;45.412;10.852;2023-12-20T11:54:00;4.72;;;4.07;;
43327;SDS011;28923;45.412;10.852;2023-12-20T11:56:25;5.75;;;4.10;;
43327;SDS011;28923;45.412;10.852;2023-12-20T11:58:51;5.28;;;4.32;;
43327;SDS011;28923;45.412;10.852;2023-12-20T12:01:19;5.30;;;3.90;;
43327;SDS011;28923;45.412;10.852;2023-12-20T12:03:44;6.10;;;4.35;;
43327;SDS011;28923;45.412;10.852;2023-12-20T12:06:10;5.60;;;4.07;;
43327;SDS011;28923;45.412;10.852;2023-12-20T12:08:35;4.85;;;3.92;;
43327;SDS011;28923;45.412;10.852;2023-12-20T12:11:01;5.00;;;4.47;;
43327;SDS011;28923;45.412;10.852;2023-12-20T12:13:28;6.97;;;4.57;;
43327;SDS011;28923;45.412;10.852;2023-12-20T12:15:53;5.93;;;4.60;;
43327;SDS011;28923;45.412;10.852;2023-12-20T12:18:19;5.15;;;4.22;;
43327;SDS011;28923;45.412;10.852;2023-12-20T12:20:45;5.28;;;4.13;;
43327;SDS011;28923;45.412;10.852;2023-12-20T12:23:11;6.13;;;4.15;;
43327;SDS011;28923;45.412;10.852;2023-12-20T12:25:36;5.55;;;4.40;;
43327;SDS011;28923;45.412;10.852;2023-12-20T12:28:02;6.03;;;4.28;;
43327;SDS011;28923;45.412;10.852;2023-12-20T12:30:28;6.70;;;4.53;;
43327;SDS011;28923;45.412;10.852;2023-12-20T12:32:55;8.05;;;4.60;;
43327;SDS011;28923;45.412;10.852;2023-12-20T12:35:20;4.85;;;4.20;;
43327;SDS011;28923;45.412;10.852;2023-12-20T12:37:46;5.97;;;4.47;;
43327;SDS011;28923;45.412;10.852;2023-12-20T12:40:13;5.78;;;4.57;;
43327;SDS011;28923;45.412;10.852;2023-12-20T12:42:39;5.32;;;4.05;;
43327;SDS011;28923;45.412;10.852;2023-12-20T12:45:05;5.75;;;4.68;;
43327;SDS011;28923;45.412;10.852;2023-12-20T12:47:30;6.82;;;4.53;;
43327;SDS011;28923;45.412;10.852;2023-12-20T12:49:56;5.40;;;4.55;;
43327;SDS011;28923;45.412;10.852;2023-12-20T12:52:21;5.28;;;4.75;;
43327;SDS011;28923;45.412;10.852;2023-12-20T12:54:47;5.40;;;4.32;;
43327;SDS011;28923;45.412;10.852;2023-12-20T12:57:13;7.72;;;4.65;;
43327;SDS011;28923;45.412;10.852;2023-12-20T12:59:39;8.18;;;4.30;;
43327;SDS011;28923;45.412;10.852;2023-12-20T13:02:06;5.50;;;4.65;;
43327;SDS011;28923;45.412;10.852;2023-12-20T13:04:31;7.10;;;5.10;;
43327;SDS011;28923;45.412;10.852;2023-12-20T13:06:57;8.95;;;4.47;;
43327;SDS011;28923;45.412;10.852;2023-12-20T13:09:22;6.57;;;4.57;;
43327;SDS011;28923;45.412;10.852;2023-12-20T13:11:48;5.97;;;4.53;;
43327;SDS011;28923;45.412;10.852;2023-12-20T13:14:13;5.78;;;4.70;;
43327;SDS011;28923;45.412;10.852;2023-12-20T13:16:41;8.07;;;5.13;;
43327;SDS011;28923;45.412;10.852;2023-12-20T13:19:06;6.53;;;4.97;;
43327;SDS011;28923;45.412;10.852;2023-12-20T13:21:31;8.75;;;4.95;;
43327;SDS011;28923;45.412;10.852;2023-12-20T13:23:57;7.90;;;4.78;;
43327;SDS011;28923;45.412;10.852;2023-12-20T13:26:23;6.80;;;4.25;;
43327;SDS011;28923;45.412;10.852;2023-12-20T13:28:48;8.68;;;4.70;;
43327;SDS011;28923;45.412;10.852;2023-12-20T13:31:14;6.93;;;4.45;;
43327;SDS011;28923;45.412;10.852;2023-12-20T13:33:39;6.00;;;4.57;;
43327;SDS011;28923;45.412;10.852;2023-12-20T13:36:05;6.15;;;4.70;;
43327;SDS011;28923;45.412;10.852;2023-12-20T13:38:32;7.35;;;4.80;;
43327;SDS011;28923;45.412;10.852;2023-12-20T13:40:59;7.57;;;4.55;;
43327;SDS011;28923;45.412;10.852;2023-12-20T13:43:24;8.07;;;5.07;;
43327;SDS011;28923;45.412;10.852;2023-12-20T13:45:50;7.07;;;4.97;;
43327;SDS011;28923;45.412;10.852;2023-12-20T13:48:16;6.85;;;5.15;;
43327;SDS011;28923;45.412;10.852;2023-12-20T13:50:41;7.00;;;4.32;;
43327;SDS011;28923;45.412;10.852;2023-12-20T13:53:07;5.65;;;4.55;;
43327;SDS011;28923;45.412;10.852;2023-12-20T13:55:32;6.82;;;4.22;;
43327;SDS011;28923;45.412;10.852;2023-12-20T13:57:58;4.72;;;4.18;;
43327;SDS011;28923;45.412;10.852;2023-12-20T14:00:23;6.43;;;4.78;;
43327;SDS011;28923;45.412;10.852;2023-12-20T14:02:49;6.95;;;4.40;;
43327;SDS011;28923;45.412;10.852;2023-12-20T14:05:15;6.78;;;5.28;;
43327;SDS011;28923;45.412;10.852;2023-12-20T14:07:43;7.65;;;4.40;;
43327;SDS011;28923;45.412;10.852;2023-12-20T14:10:12;6.50;;;4.95;;
43327;SDS011;28923;45.412;10.852;2023-12-20T14:12:39;7.03;;;4.75;;
43327;SDS011;28923;45.412;10.852;2023-12-20T14:15:05;7.30;;;4.72;;
43327;SDS011;28923;45.412;10.852;2023-12-20T14:17:39;10.52;;;5.05;;
43327;SDS011;28923;45.412;10.852;2023-12-20T14:20:05;9.02;;;5.13;;
43327;SDS011;28923;45.412;10.852;2023-12-20T14:22:32;5.93;;;4.90;;
43327;SDS011;28923;45.412;10.852;2023-12-20T14:24:58;10.15;;;5.00;;
43327;SDS011;28923;45.412;10.852;2023-12-20T14:27:24;8.38;;;4.82;;
43327;SDS011;28923;45.412;10.852;2023-12-20T14:29:54;6.80;;;5.13;;
43327;SDS011;28923;45.412;10.852;2023-12-20T14:32:20;7.95;;;5.13;;
43327;SDS011;28923;45.412;10.852;2023-12-20T14:34:45;6.65;;;4.78;;
43327;SDS011;28923;45.412;10.852;2023-12-20T14:37:11;6.80;;;5.10;;
43327;SDS011;28923;45.412;10.852;2023-12-20T14:39:37;6.63;;;4.78;;
43327;SDS011;28923;45.412;10.852;2023-12-20T14:42:07;6.38;;;5.07;;
43327;SDS011;28923;45.412;10.852;2023-12-20T14:44:34;6.93;;;4.68;;
43327;SDS011;28923;45.412;10.852;2023-12-20T14:47:00;7.55;;;5.32;;
43327;SDS011;28923;45.412;10.852;2023-12-20T14:49:27;6.13;;;4.75;;
43327;SDS011;28923;45.412;10.852;2023-12-20T14:51:53;6.95;;;4.70;;
43327;SDS011;28923;45.412;10.852;2023-12-20T14:54:19;9.88;;;4.55;;
43327;SDS011;28923;45.412;10.852;2023-12-20T14:56:46;9.02;;;4.80;;
43327;SDS011;28923;45.412;10.852;2023-12-20T14:59:12;5.55;;;4.75;;
43327;SDS011;28923;45.412;10.852;2023-12-20T15:01:37;5.78;;;4.10;;
43327;SDS011;28923;45.412;10.852;2023-12-20T15:04:05;6.30;;;4.45;;
43327;SDS011;28923;45.412;10.852;2023-12-20T15:06:31;6.40;;;4.38;;
43327;SDS011;28923;45.412;10.852;2023-12-20T15:08:57;6.15;;;4.53;;
43327;SDS011;28923;45.412;10.852;2023-12-20T15:11:23;6.15;;;4.68;;
43327;SDS011;28923;45.412;10.852;2023-12-20T15:13:48;5.25;;;4.43;;
43327;SDS011;28923;45.412;10.852;2023-12-20T15:16:20;7.03;;;4.30;;
43327;SDS011;28923;45.412;10.852;2023-12-20T15:18:45;5.13;;;3.92;;
43327;SDS011;28923;45.412;10.852;2023-12-20T15:21:11;5.40;;;4.35;;
43327;SDS011;28923;45.412;10.852;2023-12-20T15:23:37;5.95;;;4.53;;
43327;SDS011;28923;45.412;10.852;2023-12-20T15:26:03;5.45;;;4.85;;
43327;SDS011;28923;45.412;10.852;2023-12-20T15:28:32;5.03;;;4.15;;
43327;SDS011;28923;45.412;10.852;2023-12-20T15:30:57;4.55;;;4.07;;
43327;SDS011;28923;45.412;10.852;2023-12-20T15:33:23;4.93;;;4.30;;
43327;SDS011;28923;45.412;10.852;2023-12-20T15:35:48;7.60;;;4.20;;
43327;SDS011;28923;45.412;10.852;2023-12-20T15:38:14;5.22;;;4.57;;
43327;SDS011;28923;45.412;10.852;2023-12-20T15:40:39;5.47;;;4.13;;
43327;SDS011;28923;45.412;10.852;2023-12-20T15:43:05;6.70;;;4.38;;
43327;SDS011;28923;45.412;10.852;2023-12-20T15:45:31;5.75;;;4.10;;
43327;SDS011;28923;45.412;10.852;2023-12-20T15:47:57;6.63;;;4.53;;
43327;SDS011;28923;45.412;10.852;2023-12-20T15:50:23;5.72;;;4.57;;
43327;SDS011;28923;45.412;10.852;2023-12-20T15:52:49;5.45;;;4.22;;
43327;SDS011;28923;45.412;10.852;2023-12-20T15:55:15;5.50;;;3.75;;
43327;SDS011;28923;45.412;10.852;2023-12-20T15:57:41;5.50;;;3.80;;
43327;SDS011;28923;45.412;10.852;2023-12-20T16:00:07;7.15;;;4.30;;
43327;SDS011;28923;45.412;10.852;2023-12-20T16:02:34;4.80;;;4.22;;
43327;SDS011;28923;45.412;10.852;2023-12-20T16:05:00;7.82;;;4.18;;
43327;SDS011;28923;45.412;10.852;2023-12-20T16:07:25;6.30;;;4.15;;
43327;SDS011;28923;45.412;10.852;2023-12-20T16:09:51;7.18;;;4.38;;
43327;SDS011;28923;45.412;10.852;2023-12-20T16:12:16;5.50;;;4.30;;
43327;SDS011;28923;45.412;10.852;2023-12-20T16:14:43;5.45;;;4.30;;
43327;SDS011;28923;45.412;10.852;2023-12-20T16:17:09;4.63;;;3.83;;
43327;SDS011;28923;45.412;10.852;2023-12-20T16:19:34;4.85;;;3.97;;
43327;SDS011;28923;45.412;10.852;2023-12-20T16:22:00;10.18;;;4.43;;
43327;SDS011;28923;45.412;10.852;2023-12-20T16:24:25;6.07;;;3.75;;
43327;SDS011;28923;45.412;10.852;2023-12-20T16:26:51;5.65;;;4.30;;
43327;SDS011;28923;45.412;10.852;2023-12-20T16:29:17;5.43;;;3.60;;
43327;SDS011;28923;45.412;10.852;2023-12-20T16:31:42;5.72;;;4.10;;
43327;SDS011;28923;45.412;10.852;2023-12-20T16:34:08;6.75;;;4.20;;
43327;SDS011;28923;45.412;10.852;2023-12-20T16:36:52;4.68;;;3.85;;
43327;SDS011;28923;45.412;10.852;2023-12-20T16:39:20;6.68;;;3.90;;
43327;SDS011;28923;45.412;10.852;2023-12-20T16:41:46;6.43;;;4.30;;
43327;SDS011;28923;45.412;10.852;2023-12-20T16:44:11;7.43;;;4.30;;
43327;SDS011;28923;45.412;10.852;2023-12-20T16:46:37;5.38;;;4.55;;
43327;SDS011;28923;45.412;10.852;2023-12-20T16:49:02;4.90;;;3.85;;
43327;SDS011;28923;45.412;10.852;2023-12-20T16:51:28;6.10;;;4.63;;
43327;SDS011;28923;45.412;10.852;2023-12-20T16:53:54;5.93;;;4.45;;
43327;SDS011;28923;45.412;10.852;2023-12-20T16:56:20;4.75;;;3.95;;
43327;SDS011;28923;45.412;10.852;2023-12-20T16:58:45;6.35;;;4.07;;
43327;SDS011;28923;45.412;10.852;2023-12-20T17:01:10;5.18;;;4.03;;
43327;SDS011;28923;45.412;10.852;2023-12-20T17:03:38;5.55;;;4.35;;
43327;SDS011;28923;45.412;10.852;2023-12-20T17:06:04;5.45;;;4.13;;
43327;SDS011;28923;45.412;10.852;2023-12-20T17:08:30;6.60;;;4.00;;
43327;SDS011;28923;45.412;10.852;2023-12-20T17:10:55;6.70;;;4.30;;
43327;SDS011;28923;45.412;10.852;2023-12-20T17:13:21;6.88;;;4.28;;
43327;SDS011;28923;45.412;10.852;2023-12-20T17:15:46;5.50;;;4.38;;
43327;SDS011;28923;45.412;10.852;2023-12-20T17:18:11;10.02;;;5.05;;
43327;SDS011;28923;45.412;10.852;2023-12-20T17:20:37;8.00;;;4.43;;
43327;SDS011;28923;45.412;10.852;2023-12-20T17:23:03;7.00;;;4.15;;
43327;SDS011;28923;45.412;10.852;2023-12-20T17:25:29;7.22;;;4.15;;
43327;SDS011;28923;45.412;10.852;2023-12-20T17:27:55;11.38;;;4.80;;
43327;SDS011;28923;45.412;10.852;2023-12-20T17:30:22;7.40;;;4.70;;
43327;SDS011;28923;45.412;10.852;2023-12-20T17:32:47;6.32;;;4.38;;
43327;SDS011;28923;45.412;10.852;2023-12-20T17:35:16;8.80;;;4.68;;
43327;SDS011;28923;45.412;10.852;2023-12-20T17:37:42;6.28;;;4.60;;
43327;SDS011;28923;45.412;10.852;2023-12-20T17:40:10;7.65;;;5.13;;
43327;SDS011;28923;45.412;10.852;2023-12-20T17:42:36;9.00;;;5.00;;
43327;SDS011;28923;45.412;10.852;2023-12-20T17:45:02;8.25;;;5.10;;
43327;SDS011;28923;45.412;10.852;2023-12-20T17:47:28;7.28;;;4.63;;
43327;SDS011;28923;45.412;10.852;2023-12-20T17:49:53;6.28;;;4.60;;
43327;SDS011;28923;45.412;10.852;2023-12-20T17:52:19;10.90;;;4.95;;
43327;SDS011;28923;45.412;10.852;2023-12-20T17:54:45;7.15;;;4.55;;
43327;SDS011;28923;45.412;10.852;2023-12-20T17:57:10;7.40;;;4.53;;
43327;SDS011;28923;45.412;10.852;2023-12-20T17:59:35;9.07;;;4.50;;
43327;SDS011;28923;45.412;10.852;2023-12-20T18:02:04;9.32;;;4.93;;
43327;SDS011;28923;45.412;10.852;2023-12-20T18:04:29;6.80;;;4.65;;
43327;SDS011;28923;45.412;10.852;2023-12-20T18:06:55;6.63;;;5.07;;
43327;SDS011;28923;45.412;10.852;2023-12-20T18:09:21;7.13;;;4.63;;
43327;SDS011;28923;45.412;10.852;2023-12-20T18:11:46;7.05;;;4.55;;
43327;SDS011;28923;45.412;10.852;2023-12-20T18:14:12;6.00;;;4.88;;
43327;SDS011;28923;45.412;10.852;2023-12-20T18:16:38;8.30;;;5.88;;
43327;SDS011;28923;45.412;10.852;2023-12-20T18:19:05;8.35;;;5.50;;
43327;SDS011;28923;45.412;10.852;2023-12-20T18:21:31;9.30;;;6.03;;
43327;SDS011;28923;45.412;10.852;2023-12-20T18:23:57;8.75;;;5.88;;
43327;SDS011;28923;45.412;10.852;2023-12-20T18:26:22;8.20;;;5.72;;
43327;SDS011;28923;45.412;10.852;2023-12-20T18:28:48;8.18;;;5.82;;
43327;SDS011;28923;45.412;10.852;2023-12-20T18:31:14;10.77;;;6.18;;
43327;SDS011;28923;45.412;10.852;2023-12-20T18:33:40;10.52;;;6.57;;
43327;SDS011;28923;45.412;10.852;2023-12-20T18:36:05;9.18;;;6.47;;
43327;SDS011;28923;45.412;10.852;2023-12-20T18:38:31;10.40;;;6.18;;
43327;SDS011;28923;45.412;10.852;2023-12-20T18:40:57;7.95;;;6.60;;
43327;SDS011;28923;45.412;10.852;2023-12-20T18:43:23;8.27;;;6.32;;
43327;SDS011;28923;45.412;10.852;2023-12-20T18:45:51;8.60;;;6.75;;
43327;SDS011;28923;45.412;10.852;2023-12-20T18:48:16;7.82;;;6.28;;
43327;SDS011;28923;45.412;10.852;2023-12-20T18:50:42;9.48;;;6.60;;
43327;SDS011;28923;45.412;10.852;2023-12-20T18:53:07;8.43;;;6.40;;
43327;SDS011;28923;45.412;10.852;2023-12-20T18:55:33;8.48;;;6.32;;
43327;SDS011;28923;45.412;10.852;2023-12-20T18:57:58;8.38;;;6.25;;
43327;SDS011;28923;45.412;10.852;2023-12-20T19:00:23;7.95;;;5.70;;
43327;SDS011;28923;45.412;10.852;2023-12-20T19:02:51;6.95;;;5.60;;
43327;SDS011;28923;45.412;10.852;2023-12-20T19:05:17;7.57;;;5.82;;
43327;SDS011;28923;45.412;10.852;2023-12-20T19:07:42;6.53;;;5.65;;
43327;SDS011;28923;45.412;10.852;2023-12-20T19:10:08;7.40;;;5.53;;
43327;SDS011;28923;45.412;10.852;2023-12-20T19:12:34;8.20;;;5.93;;
43327;SDS011;28923;45.412;10.852;2023-12-20T19:14:59;7.68;;;5.72;;
43327;SDS011;28923;45.412;10.852;2023-12-20T19:17:25;8.30;;;5.40;;
43327;SDS011;28923;45.412;10.852;2023-12-20T19:19:50;7.93;;;5.82;;
43327;SDS011;28923;45.412;10.852;2023-12-20T19:22:16;8.02;;;6.05;;
43327;SDS011;28923;45.412;10.852;2023-12-20T19:24:41;8.82;;;6.40;;
43327;SDS011;28923;45.412;10.852;2023-12-20T19:27:09;8.98;;;6.15;;
43327;SDS011;28923;45.412;10.852;2023-12-20T19:29:34;7.72;;;5.85;;
43327;SDS011;28923;45.412;10.852;2023-12-20T19:32:00;9.55;;;5.63;;